sensor_id;sensor_type;location;lat;lon;timestamp;P1;durP1;ratioP1;P2;durP2;ratioP2
41739;SDS011;27422;52.444;13.300;2022-07-06T00:01:06;1.15;;;0.40;;
41739;SDS011;27422;52.444;13.300;2022-07-06T00:03:31;0.93;;;0.40;;
41739;SDS011;27422;52.444;13.300;2022-07-06T00:05:56;0.63;;;0.40;;
41739;SDS011;27422;52.444;13.300;2022-07-06T00:08:22;1.42;;;0.40;;
41739;SDS011;27422;52.444;13.300;2022-07-06T00:10:47;1.80;;;0.40;;
41739;SDS011;27422;52.444;13.300;2022-07-06T00:13:15;1.95;;;0.52;;
41739;SDS011;27422;52.444;13.300;2022-07-06T00:15:40;1.00;;;0.40;;
41739;SDS011;27422;52.444;13.300;2022-07-06T00:18:06;1.48;;;0.50;;
41739;SDS011;27422;52.444;13.300;2022-07-06T00:20:31;0.85;;;0.38;;
41739;SDS011;27422;52.444;13.300;2022-07-06T00:22:56;1.58;;;0.50;;
41739;SDS011;27422;52.444;13.300;2022-07-06T00:25:22;2.30;;;0.40;;
41739;SDS011;27422;52.444;13.300;2022-07-06T00:27:47;1.58;;;0.50;;
41739;SDS011;27422;52.444;13.300;2022-07-06T00:30:12;1.27;;;0.50;;
41739;SDS011;27422;52.444;13.300;2022-07-06T00:32:38;1.10;;;0.30;;
41739;SDS011;27422;52.444;13.300;2022-07-06T00:35:03;1.70;;;0.40;;
41739;SDS011;27422;52.444;13.300;2022-07-06T00:37:30;1.70;;;0.50;;
41739;SDS011;27422;52.444;13.300;2022-07-06T00:39:55;0.82;;;0.35;;
41739;SDS011;27422;52.444;13.300;2022-07-06T00:42:20;2.08;;;0.50;;
41739;SDS011;27422;52.444;13.300;2022-07-06T00:44:46;1.30;;;0.40;;
41739;SDS011;27422;52.444;13.300;2022-07-06T00:47:11;1.38;;;0.50;;
41739;SDS011;27422;52.444;13.300;2022-07-06T00:49:36;1.00;;;0.40;;
41739;SDS011;27422;52.444;13.300;2022-07-06T00:52:20;1.90;;;0.50;;
41739;SDS011;27422;52.444;13.300;2022-07-06T00:54:45;1.70;;;0.57;;
41739;SDS011;27422;52.444;13.300;2022-07-06T00:57:11;1.67;;;0.50;;
41739;SDS011;27422;52.444;13.300;2022-07-06T00:59:37;1.40;;;0.50;;
41739;SDS011;27422;52.444;13.300;2022-07-06T01:02:02;1.15;;;0.40;;
41739;SDS011;27422;52.444;13.300;2022-07-06T01:04:27;0.63;;;0.40;;
41739;SDS011;27422;52.444;13.300;2022-07-06T01:06:56;1.40;;;0.50;;
41739;SDS011;27422;52.444;13.300;2022-07-06T01:09:21;2.53;;;0.70;;
41739;SDS011;27422;52.444;13.300;2022-07-06T01:11:47;2.65;;;0.40;;
41739;SDS011;27422;52.444;13.300;2022-07-06T01:14:14;1.20;;;0.40;;
41739;SDS011;27422;52.444;13.300;2022-07-06T01:16:39;1.27;;;0.40;;
41739;SDS011;27422;52.444;13.300;2022-07-06T01:19:04;5.38;;;0.63;;
41739;SDS011;27422;52.444;13.300;2022-07-06T01:21:30;1.80;;;0.63;;
41739;SDS011;27422;52.444;13.300;2022-07-06T01:23:55;0.82;;;0.50;;
41739;SDS011;27422;52.444;13.300;2022-07-06T01:26:20;3.53;;;0.80;;
41739;SDS011;27422;52.444;13.300;2022-07-06T01:28:48;1.48;;;0.65;;
41739;SDS011;27422;52.444;13.300;2022-07-06T01:31:18;1.10;;;0.50;;
41739;SDS011;27422;52.444;13.300;2022-07-06T01:33:45;0.98;;;0.50;;
41739;SDS011;27422;52.444;13.300;2022-07-06T01:36:10;1.83;;;0.68;;
41739;SDS011;27422;52.444;13.300;2022-07-06T01:41:14;1.15;;;0.50;;
41739;SDS011;27422;52.444;13.300;2022-07-06T01:43:40;2.85;;;0.50;;
41739;SDS011;27422;52.444;13.300;2022-07-06T01:46:05;1.05;;;0.40;;
41739;SDS011;27422;52.444;13.300;2022-07-06T01:48:31;1.98;;;0.60;;
41739;SDS011;27422;52.444;13.300;2022-07-06T01:50:56;2.17;;;0.45;;
41739;SDS011;27422;52.444;13.300;2022-07-06T01:53:21;2.83;;;0.60;;
41739;SDS011;27422;52.444;13.300;2022-07-06T01:55:47;1.15;;;0.60;;
41739;SDS011;27422;52.444;13.300;2022-07-06T01:58:12;1.65;;;0.60;;
41739;SDS011;27422;52.444;13.300;2022-07-06T02:00:37;1.73;;;0.68;;
41739;SDS011;27422;52.444;13.300;2022-07-06T02:03:03;0.93;;;0.50;;
41739;SDS011;27422;52.444;13.300;2022-07-06T02:05:28;1.60;;;0.60;;
41739;SDS011;27422;52.444;13.300;2022-07-06T02:07:53;2.03;;;0.60;;
41739;SDS011;27422;52.444;13.300;2022-07-06T02:10:19;0.90;;;0.40;;
41739;SDS011;27422;52.444;13.300;2022-07-06T02:12:44;1.60;;;0.60;;
41739;SDS011;27422;52.444;13.300;2022-07-06T02:15:09;4.45;;;0.77;;
41739;SDS011;27422;52.444;13.300;2022-07-06T02:17:35;1.98;;;0.70;;
41739;SDS011;27422;52.444;13.300;2022-07-06T02:20:00;1.90;;;0.70;;
41739;SDS011;27422;52.444;13.300;2022-07-06T02:22:26;1.35;;;0.60;;
41739;SDS011;27422;52.444;13.300;2022-07-06T02:24:51;1.75;;;0.93;;
41739;SDS011;27422;52.444;13.300;2022-07-06T02:27:16;2.53;;;0.90;;
41739;SDS011;27422;52.444;13.300;2022-07-06T02:29:41;1.85;;;0.70;;
41739;SDS011;27422;52.444;13.300;2022-07-06T02:32:07;1.30;;;0.60;;
41739;SDS011;27422;52.444;13.300;2022-07-06T02:34:32;3.40;;;0.80;;
41739;SDS011;27422;52.444;13.300;2022-07-06T02:36:58;1.48;;;0.73;;
41739;SDS011;27422;52.444;13.300;2022-07-06T02:39:25;1.57;;;0.70;;
41739;SDS011;27422;52.444;13.300;2022-07-06T02:41:50;2.53;;;0.70;;
41739;SDS011;27422;52.444;13.300;2022-07-06T02:44:16;2.90;;;0.80;;
41739;SDS011;27422;52.444;13.300;2022-07-06T02:46:41;1.98;;;0.68;;
41739;SDS011;27422;52.444;13.300;2022-07-06T02:49:06;1.50;;;0.77;;
41739;SDS011;27422;52.444;13.300;2022-07-06T02:51:32;3.25;;;0.88;;
41739;SDS011;27422;52.444;13.300;2022-07-06T02:53:57;2.10;;;0.80;;
41739;SDS011;27422;52.444;13.300;2022-07-06T02:56:22;2.20;;;0.70;;
41739;SDS011;27422;52.444;13.300;2022-07-06T02:58:48;1.75;;;0.63;;
41739;SDS011;27422;52.444;13.300;2022-07-06T03:01:13;2.42;;;0.80;;
41739;SDS011;27422;52.444;13.300;2022-07-06T03:03:38;1.63;;;0.60;;
41739;SDS011;27422;52.444;13.300;2022-07-06T03:06:03;1.58;;;0.63;;
41739;SDS011;27422;52.444;13.300;2022-07-06T03:08:29;2.65;;;0.93;;
41739;SDS011;27422;52.444;13.300;2022-07-06T03:10:54;1.77;;;0.60;;
41739;SDS011;27422;52.444;13.300;2022-07-06T03:13:20;2.83;;;0.70;;
41739;SDS011;27422;52.444;13.300;2022-07-06T03:15:45;1.98;;;0.77;;
41739;SDS011;27422;52.444;13.300;2022-07-06T03:18:10;1.20;;;0.50;;
41739;SDS011;27422;52.444;13.300;2022-07-06T03:20:36;2.22;;;0.60;;
41739;SDS011;27422;52.444;13.300;2022-07-06T03:23:01;1.77;;;0.90;;
41739;SDS011;27422;52.444;13.300;2022-07-06T03:25:26;2.53;;;0.80;;
41739;SDS011;27422;52.444;13.300;2022-07-06T03:27:52;1.65;;;0.88;;
41739;SDS011;27422;52.444;13.300;2022-07-06T03:30:17;2.15;;;0.80;;
41739;SDS011;27422;52.444;13.300;2022-07-06T03:32:42;2.08;;;0.90;;
41739;SDS011;27422;52.444;13.300;2022-07-06T03:35:08;2.65;;;0.70;;
41739;SDS011;27422;52.444;13.300;2022-07-06T03:37:33;2.15;;;0.90;;
41739;SDS011;27422;52.444;13.300;2022-07-06T03:39:59;2.47;;;0.85;;
41739;SDS011;27422;52.444;13.300;2022-07-06T03:42:24;3.88;;;0.90;;
41739;SDS011;27422;52.444;13.300;2022-07-06T03:44:49;3.10;;;1.10;;
41739;SDS011;27422;52.444;13.300;2022-07-06T03:47:15;1.73;;;0.68;;
41739;SDS011;27422;52.444;13.300;2022-07-06T03:49:40;1.33;;;0.68;;
41739;SDS011;27422;52.444;13.300;2022-07-06T03:52:05;2.15;;;0.80;;
41739;SDS011;27422;52.444;13.300;2022-07-06T03:54:31;2.30;;;0.70;;
41739;SDS011;27422;52.444;13.300;2022-07-06T03:56:56;2.25;;;0.77;;
41739;SDS011;27422;52.444;13.300;2022-07-06T03:59:21;1.80;;;0.82;;
41739;SDS011;27422;52.444;13.300;2022-07-06T04:01:47;1.63;;;0.93;;
41739;SDS011;27422;52.444;13.300;2022-07-06T04:04:12;4.10;;;1.10;;
41739;SDS011;27422;52.444;13.300;2022-07-06T04:06:37;2.20;;;0.80;;
41739;SDS011;27422;52.444;13.300;2022-07-06T04:09:03;1.42;;;0.65;;
41739;SDS011;27422;52.444;13.300;2022-07-06T04:11:28;3.03;;;0.80;;
41739;SDS011;27422;52.444;13.300;2022-07-06T04:13:56;1.30;;;0.73;;
41739;SDS011;27422;52.444;13.300;2022-07-06T04:16:22;1.52;;;0.60;;
41739;SDS011;27422;52.444;13.300;2022-07-06T04:18:47;1.88;;;0.73;;
41739;SDS011;27422;52.444;13.300;2022-07-06T04:21:12;3.90;;;0.80;;
41739;SDS011;27422;52.444;13.300;2022-07-06T04:23:38;1.45;;;0.65;;
41739;SDS011;27422;52.444;13.300;2022-07-06T04:26:03;2.03;;;0.70;;
41739;SDS011;27422;52.444;13.300;2022-07-06T04:28:28;2.53;;;0.80;;
41739;SDS011;27422;52.444;13.300;2022-07-06T04:30:53;1.63;;;0.70;;
41739;SDS011;27422;52.444;13.300;2022-07-06T04:33:19;4.95;;;1.02;;
41739;SDS011;27422;52.444;13.300;2022-07-06T04:35:44;1.45;;;0.70;;
41739;SDS011;27422;52.444;13.300;2022-07-06T04:38:10;2.20;;;0.80;;
41739;SDS011;27422;52.444;13.300;2022-07-06T04:40:35;2.97;;;0.70;;
41739;SDS011;27422;52.444;13.300;2022-07-06T04:43:00;1.92;;;0.50;;
41739;SDS011;27422;52.444;13.300;2022-07-06T04:45:26;1.55;;;0.63;;
41739;SDS011;27422;52.444;13.300;2022-07-06T04:47:51;1.17;;;0.50;;
41739;SDS011;27422;52.444;13.300;2022-07-06T04:50:17;4.30;;;0.95;;
41739;SDS011;27422;52.444;13.300;2022-07-06T04:52:42;1.30;;;0.70;;
41739;SDS011;27422;52.444;13.300;2022-07-06T04:55:10;1.50;;;0.63;;
41739;SDS011;27422;52.444;13.300;2022-07-06T04:57:36;2.53;;;0.60;;
41739;SDS011;27422;52.444;13.300;2022-07-06T05:00:02;2.10;;;0.80;;
41739;SDS011;27422;52.444;13.300;2022-07-06T05:02:28;2.17;;;0.70;;
41739;SDS011;27422;52.444;13.300;2022-07-06T05:04:53;1.77;;;0.75;;
41739;SDS011;27422;52.444;13.300;2022-07-06T05:07:19;1.38;;;0.40;;
41739;SDS011;27422;52.444;13.300;2022-07-06T05:09:44;2.58;;;0.50;;
41739;SDS011;27422;52.444;13.300;2022-07-06T05:12:10;1.60;;;0.60;;
41739;SDS011;27422;52.444;13.300;2022-07-06T05:14:35;3.10;;;0.63;;
41739;SDS011;27422;52.444;13.300;2022-07-06T05:17:01;1.38;;;0.60;;
41739;SDS011;27422;52.444;13.300;2022-07-06T05:19:27;2.97;;;0.80;;
41739;SDS011;27422;52.444;13.300;2022-07-06T05:21:52;1.25;;;0.80;;
41739;SDS011;27422;52.444;13.300;2022-07-06T05:24:17;1.20;;;0.50;;
41739;SDS011;27422;52.444;13.300;2022-07-06T05:26:44;2.60;;;0.85;;
41739;SDS011;27422;52.444;13.300;2022-07-06T05:29:09;3.10;;;0.50;;
41739;SDS011;27422;52.444;13.300;2022-07-06T05:31:35;1.02;;;0.40;;
41739;SDS011;27422;52.444;13.300;2022-07-06T05:34:00;1.67;;;0.60;;
41739;SDS011;27422;52.444;13.300;2022-07-06T05:36:26;1.38;;;0.50;;
41739;SDS011;27422;52.444;13.300;2022-07-06T05:38:51;1.55;;;0.40;;
41739;SDS011;27422;52.444;13.300;2022-07-06T05:41:16;2.95;;;0.77;;
41739;SDS011;27422;52.444;13.300;2022-07-06T05:43:42;1.45;;;0.60;;
41739;SDS011;27422;52.444;13.300;2022-07-06T05:46:27;2.33;;;0.40;;
41739;SDS011;27422;52.444;13.300;2022-07-06T05:48:53;3.42;;;0.60;;
41739;SDS011;27422;52.444;13.300;2022-07-06T05:51:37;4.45;;;0.60;;
41739;SDS011;27422;52.444;13.300;2022-07-06T05:54:02;3.33;;;0.40;;
41739;SDS011;27422;52.444;13.300;2022-07-06T05:56:27;1.58;;;0.52;;
41739;SDS011;27422;52.444;13.300;2022-07-06T05:58:53;3.05;;;0.40;;
41739;SDS011;27422;52.444;13.300;2022-07-06T06:01:18;1.00;;;0.55;;
41739;SDS011;27422;52.444;13.300;2022-07-06T06:03:43;1.38;;;0.32;;
41739;SDS011;27422;52.444;13.300;2022-07-06T06:06:09;0.70;;;0.30;;
41739;SDS011;27422;52.444;13.300;2022-07-06T06:08:34;1.38;;;0.52;;
41739;SDS011;27422;52.444;13.300;2022-07-06T06:10:59;1.10;;;0.50;;
41739;SDS011;27422;52.444;13.300;2022-07-06T06:13:25;2.42;;;0.47;;
41739;SDS011;27422;52.444;13.300;2022-07-06T06:15:50;1.67;;;0.57;;
41739;SDS011;27422;52.444;13.300;2022-07-06T06:18:15;1.70;;;0.50;;
41739;SDS011;27422;52.444;13.300;2022-07-06T06:20:44;1.63;;;0.40;;
41739;SDS011;27422;52.444;13.300;2022-07-06T06:23:12;1.90;;;0.70;;
41739;SDS011;27422;52.444;13.300;2022-07-06T06:25:38;1.55;;;0.50;;
41739;SDS011;27422;52.444;13.300;2022-07-06T06:28:05;3.88;;;0.65;;
41739;SDS011;27422;52.444;13.300;2022-07-06T06:30:31;0.93;;;0.45;;
41739;SDS011;27422;52.444;13.300;2022-07-06T06:35:32;1.85;;;0.70;;
41739;SDS011;27422;52.444;13.300;2022-07-06T06:37:57;0.77;;;0.38;;
41739;SDS011;27422;52.444;13.300;2022-07-06T06:40:23;2.30;;;0.55;;
41739;SDS011;27422;52.444;13.300;2022-07-06T06:42:48;2.50;;;0.50;;
41739;SDS011;27422;52.444;13.300;2022-07-06T06:45:13;5.35;;;0.60;;
41739;SDS011;27422;52.444;13.300;2022-07-06T06:47:39;3.10;;;0.88;;
41739;SDS011;27422;52.444;13.300;2022-07-06T06:50:04;1.45;;;0.50;;
41739;SDS011;27422;52.444;13.300;2022-07-06T06:52:30;2.53;;;0.52;;
41739;SDS011;27422;52.444;13.300;2022-07-06T06:54:55;0.85;;;0.40;;
41739;SDS011;27422;52.444;13.300;2022-07-06T06:57:21;2.88;;;0.65;;
41739;SDS011;27422;52.444;13.300;2022-07-06T06:59:46;1.25;;;0.43;;
41739;SDS011;27422;52.444;13.300;2022-07-06T07:02:11;5.03;;;0.50;;
41739;SDS011;27422;52.444;13.300;2022-07-06T07:04:36;1.80;;;0.50;;
41739;SDS011;27422;52.444;13.300;2022-07-06T07:07:02;1.55;;;0.47;;
41739;SDS011;27422;52.444;13.300;2022-07-06T07:09:27;3.05;;;0.50;;
41739;SDS011;27422;52.444;13.300;2022-07-06T07:11:53;1.35;;;0.45;;
41739;SDS011;27422;52.444;13.300;2022-07-06T07:14:19;1.90;;;0.40;;
41739;SDS011;27422;52.444;13.300;2022-07-06T07:16:45;2.53;;;0.60;;
41739;SDS011;27422;52.444;13.300;2022-07-06T07:19:10;2.70;;;0.55;;
41739;SDS011;27422;52.444;13.300;2022-07-06T07:21:36;1.08;;;0.40;;
41739;SDS011;27422;52.444;13.300;2022-07-06T07:24:01;7.05;;;0.70;;
41739;SDS011;27422;52.444;13.300;2022-07-06T07:26:26;1.17;;;0.40;;
41739;SDS011;27422;52.444;13.300;2022-07-06T07:28:52;1.02;;;0.30;;
41739;SDS011;27422;52.444;13.300;2022-07-06T07:31:17;0.90;;;0.30;;
41739;SDS011;27422;52.444;13.300;2022-07-06T07:33:42;3.00;;;0.85;;
41739;SDS011;27422;52.444;13.300;2022-07-06T07:36:08;2.85;;;0.50;;
41739;SDS011;27422;52.444;13.300;2022-07-06T07:38:33;2.85;;;0.52;;
41739;SDS011;27422;52.444;13.300;2022-07-06T07:40:58;1.88;;;0.40;;
41739;SDS011;27422;52.444;13.300;2022-07-06T07:43:24;1.08;;;0.40;;
41739;SDS011;27422;52.444;13.300;2022-07-06T07:45:49;1.35;;;0.38;;
41739;SDS011;27422;52.444;13.300;2022-07-06T07:48:14;1.77;;;0.52;;
41739;SDS011;27422;52.444;13.300;2022-07-06T07:50:40;0.88;;;0.38;;
41739;SDS011;27422;52.444;13.300;2022-07-06T07:53:06;0.47;;;0.22;;
41739;SDS011;27422;52.444;13.300;2022-07-06T07:55:31;0.85;;;0.30;;
41739;SDS011;27422;52.444;13.300;2022-07-06T08:00:24;1.10;;;0.30;;
41739;SDS011;27422;52.444;13.300;2022-07-06T08:02:50;1.60;;;0.43;;
41739;SDS011;27422;52.444;13.300;2022-07-06T08:05:16;1.65;;;0.50;;
41739;SDS011;27422;52.444;13.300;2022-07-06T08:07:41;1.67;;;0.40;;
41739;SDS011;27422;52.444;13.300;2022-07-06T08:10:07;1.30;;;0.30;;
41739;SDS011;27422;52.444;13.300;2022-07-06T08:12:33;0.63;;;0.20;;
41739;SDS011;27422;52.444;13.300;2022-07-06T08:14:58;0.80;;;0.30;;
41739;SDS011;27422;52.444;13.300;2022-07-06T08:17:24;0.60;;;0.20;;
41739;SDS011;27422;52.444;13.300;2022-07-06T08:19:49;1.27;;;0.30;;
41739;SDS011;27422;52.444;13.300;2022-07-06T08:22:15;1.08;;;0.30;;
41739;SDS011;27422;52.444;13.300;2022-07-06T08:24:41;1.35;;;0.40;;
41739;SDS011;27422;52.444;13.300;2022-07-06T08:27:06;1.38;;;0.35;;
41739;SDS011;27422;52.444;13.300;2022-07-06T08:29:31;1.33;;;0.30;;
41739;SDS011;27422;52.444;13.300;2022-07-06T08:31:57;1.75;;;0.25;;
41739;SDS011;27422;52.444;13.300;2022-07-06T08:34:22;4.05;;;0.35;;
41739;SDS011;27422;52.444;13.300;2022-07-06T08:36:48;2.95;;;0.30;;
41739;SDS011;27422;52.444;13.300;2022-07-06T08:39:14;1.80;;;0.52;;
41739;SDS011;27422;52.444;13.300;2022-07-06T08:41:40;0.55;;;0.20;;
41739;SDS011;27422;52.444;13.300;2022-07-06T08:44:06;1.40;;;0.35;;
41739;SDS011;27422;52.444;13.300;2022-07-06T08:46:33;0.70;;;0.20;;
41739;SDS011;27422;52.444;13.300;2022-07-06T08:48:58;1.27;;;0.30;;
41739;SDS011;27422;52.444;13.300;2022-07-06T08:51:25;1.75;;;0.43;;
41739;SDS011;27422;52.444;13.300;2022-07-06T08:53:51;0.30;;;0.20;;
41739;SDS011;27422;52.444;13.300;2022-07-06T08:56:17;0.93;;;0.20;;
41739;SDS011;27422;52.444;13.300;2022-07-06T08:58:43;1.30;;;0.30;;
41739;SDS011;27422;52.444;13.300;2022-07-06T09:01:09;1.95;;;0.40;;
41739;SDS011;27422;52.444;13.300;2022-07-06T09:03:35;0.70;;;0.22;;
41739;SDS011;27422;52.444;13.300;2022-07-06T09:06:01;1.10;;;0.22;;
41739;SDS011;27422;52.444;13.300;2022-07-06T09:08:30;1.80;;;0.30;;
41739;SDS011;27422;52.444;13.300;2022-07-06T09:11:16;1.58;;;0.35;;
41739;SDS011;27422;52.444;13.300;2022-07-06T09:13:42;0.52;;;0.20;;
41739;SDS011;27422;52.444;13.300;2022-07-06T09:16:13;3.20;;;0.28;;
41739;SDS011;27422;52.444;13.300;2022-07-06T09:18:41;1.27;;;0.30;;
41739;SDS011;27422;52.444;13.300;2022-07-06T09:21:08;0.73;;;0.30;;
41739;SDS011;27422;52.444;13.300;2022-07-06T09:23:35;1.52;;;0.40;;
41739;SDS011;27422;52.444;13.300;2022-07-06T09:26:02;2.30;;;0.30;;
41739;SDS011;27422;52.444;13.300;2022-07-06T09:28:44;0.40;;;0.20;;
41739;SDS011;27422;52.444;13.300;2022-07-06T09:31:09;1.55;;;0.30;;
41739;SDS011;27422;52.444;13.300;2022-07-06T09:33:35;1.38;;;0.30;;
41739;SDS011;27422;52.444;13.300;2022-07-06T09:36:01;0.55;;;0.20;;
41739;SDS011;27422;52.444;13.300;2022-07-06T09:38:27;1.50;;;0.35;;
41739;SDS011;27422;52.444;13.300;2022-07-06T09:40:55;1.00;;;0.30;;
41739;SDS011;27422;52.444;13.300;2022-07-06T09:43:21;0.75;;;0.20;;
41739;SDS011;27422;52.444;13.300;2022-07-06T09:45:48;1.60;;;0.70;;
41739;SDS011;27422;52.444;13.300;2022-07-06T09:48:19;0.65;;;0.20;;
41739;SDS011;27422;52.444;13.300;2022-07-06T09:50:57;0.68;;;0.20;;
41739;SDS011;27422;52.444;13.300;2022-07-06T09:53:24;1.00;;;0.40;;
41739;SDS011;27422;52.444;13.300;2022-07-06T09:55:52;1.77;;;0.25;;
41739;SDS011;27422;52.444;13.300;2022-07-06T09:58:19;1.25;;;0.35;;
41739;SDS011;27422;52.444;13.300;2022-07-06T10:00:46;1.83;;;0.52;;
41739;SDS011;27422;52.444;13.300;2022-07-06T10:03:14;1.33;;;0.40;;
41739;SDS011;27422;52.444;13.300;2022-07-06T10:05:41;0.65;;;0.20;;
41739;SDS011;27422;52.444;13.300;2022-07-06T10:10:34;1.90;;;0.28;;
41739;SDS011;27422;52.444;13.300;2022-07-06T10:13:05;1.00;;;0.32;;
41739;SDS011;27422;52.444;13.300;2022-07-06T10:15:38;0.82;;;0.20;;
41739;SDS011;27422;52.444;13.300;2022-07-06T10:18:06;1.17;;;0.17;;
41739;SDS011;27422;52.444;13.300;2022-07-06T10:23:02;0.90;;;0.20;;
41739;SDS011;27422;52.444;13.300;2022-07-06T10:25:31;1.48;;;0.20;;
41739;SDS011;27422;52.444;13.300;2022-07-06T10:27:57;2.30;;;0.40;;
41739;SDS011;27422;52.444;13.300;2022-07-06T10:30:24;0.40;;;0.17;;
41739;SDS011;27422;52.444;13.300;2022-07-06T10:32:54;1.13;;;0.20;;
41739;SDS011;27422;52.444;13.300;2022-07-06T10:35:21;0.57;;;0.20;;
41739;SDS011;27422;52.444;13.300;2022-07-06T10:38:02;0.80;;;0.30;;
41739;SDS011;27422;52.444;13.300;2022-07-06T10:40:32;0.75;;;0.10;;
41739;SDS011;27422;52.444;13.300;2022-07-06T10:43:36;0.20;;;0.10;;
41739;SDS011;27422;52.444;13.300;2022-07-06T10:46:08;0.45;;;0.20;;
41739;SDS011;27422;52.444;13.300;2022-07-06T10:48:40;0.85;;;0.20;;
41739;SDS011;27422;52.444;13.300;2022-07-06T10:51:10;0.68;;;0.20;;
41739;SDS011;27422;52.444;13.300;2022-07-06T10:53:37;1.27;;;0.20;;
41739;SDS011;27422;52.444;13.300;2022-07-06T10:56:05;0.85;;;0.20;;
41739;SDS011;27422;52.444;13.300;2022-07-06T11:01:00;0.80;;;0.22;;
41739;SDS011;27422;52.444;13.300;2022-07-06T11:06:01;1.05;;;0.30;;
41739;SDS011;27422;52.444;13.300;2022-07-06T11:11:20;1.25;;;0.30;;
41739;SDS011;27422;52.444;13.300;2022-07-06T11:13:54;1.58;;;0.20;;
41739;SDS011;27422;52.444;13.300;2022-07-06T11:16:23;1.17;;;0.22;;
41739;SDS011;27422;52.444;13.300;2022-07-06T11:19:01;1.08;;;0.40;;
41739;SDS011;27422;52.444;13.300;2022-07-06T11:24:32;1.58;;;0.43;;
41739;SDS011;27422;52.444;13.300;2022-07-06T11:26:59;0.82;;;0.32;;
41739;SDS011;27422;52.444;13.300;2022-07-06T11:29:26;0.80;;;0.30;;
41739;SDS011;27422;52.444;13.300;2022-07-06T11:31:54;1.25;;;0.47;;
41739;SDS011;27422;52.444;13.300;2022-07-06T11:36:46;1.13;;;0.30;;
41739;SDS011;27422;52.444;13.300;2022-07-06T11:39:13;1.35;;;0.30;;
41739;SDS011;27422;52.444;13.300;2022-07-06T11:41:39;1.95;;;0.50;;
41739;SDS011;27422;52.444;13.300;2022-07-06T11:44:04;1.70;;;0.43;;
41739;SDS011;27422;52.444;13.300;2022-07-06T11:46:30;1.10;;;0.50;;
41739;SDS011;27422;52.444;13.300;2022-07-06T11:49:03;1.80;;;0.45;;
41739;SDS011;27422;52.444;13.300;2022-07-06T11:51:31;0.13;;;0.10;;
41739;SDS011;27422;52.444;13.300;2022-07-06T11:54:03;0.45;;;0.17;;
41739;SDS011;27422;52.444;13.300;2022-07-06T11:56:33;0.40;;;0.20;;
41739;SDS011;27422;52.444;13.300;2022-07-06T11:58:59;0.35;;;0.10;;
41739;SDS011;27422;52.444;13.300;2022-07-06T12:01:26;1.25;;;0.20;;
41739;SDS011;27422;52.444;13.300;2022-07-06T12:03:52;0.38;;;0.13;;
41739;SDS011;27422;52.444;13.300;2022-07-06T12:06:19;0.88;;;0.17;;
41739;SDS011;27422;52.444;13.300;2022-07-06T12:08:49;0.22;;;0.10;;
41739;SDS011;27422;52.444;13.300;2022-07-06T12:11:28;0.30;;;0.10;;
41739;SDS011;27422;52.444;13.300;2022-07-06T12:13:57;1.10;;;0.20;;
41739;SDS011;27422;52.444;13.300;2022-07-06T12:16:32;0.80;;;0.20;;
41739;SDS011;27422;52.444;13.300;2022-07-06T12:19:00;0.90;;;0.35;;
41739;SDS011;27422;52.444;13.300;2022-07-06T12:21:46;0.45;;;0.10;;
41739;SDS011;27422;52.444;13.300;2022-07-06T12:24:19;0.30;;;0.10;;
41739;SDS011;27422;52.444;13.300;2022-07-06T12:26:46;0.47;;;0.20;;
41739;SDS011;27422;52.444;13.300;2022-07-06T12:29:12;1.38;;;0.25;;
41739;SDS011;27422;52.444;13.300;2022-07-06T12:31:51;0.68;;;0.20;;
41739;SDS011;27422;52.444;13.300;2022-07-06T12:34:22;1.02;;;0.13;;
41739;SDS011;27422;52.444;13.300;2022-07-06T12:36:54;0.80;;;0.20;;
41739;SDS011;27422;52.444;13.300;2022-07-06T12:39:24;1.58;;;0.30;;
41739;SDS011;27422;52.444;13.300;2022-07-06T12:41:56;0.45;;;0.13;;
41739;SDS011;27422;52.444;13.300;2022-07-06T12:44:26;0.85;;;0.20;;
41739;SDS011;27422;52.444;13.300;2022-07-06T12:47:07;1.33;;;0.20;;
41739;SDS011;27422;52.444;13.300;2022-07-06T12:49:35;0.93;;;0.40;;
41739;SDS011;27422;52.444;13.300;2022-07-06T12:57:09;1.03;;;0.50;;
41739;SDS011;27422;52.444;13.300;2022-07-06T12:59:56;1.27;;;0.47;;
41739;SDS011;27422;52.444;13.300;2022-07-06T13:07:35;2.17;;;0.82;;
41739;SDS011;27422;52.444;13.300;2022-07-06T13:12:30;5.35;;;2.50;;
41739;SDS011;27422;52.444;13.300;2022-07-06T13:14:55;5.07;;;2.10;;
41739;SDS011;27422;52.444;13.300;2022-07-06T13:17:20;4.82;;;2.67;;
41739;SDS011;27422;52.444;13.300;2022-07-06T13:19:46;5.57;;;3.20;;
41739;SDS011;27422;52.444;13.300;2022-07-06T13:22:11;6.80;;;3.13;;
41739;SDS011;27422;52.444;13.300;2022-07-06T13:24:36;5.00;;;2.50;;
41739;SDS011;27422;52.444;13.300;2022-07-06T13:27:05;5.00;;;2.70;;
41739;SDS011;27422;52.444;13.300;2022-07-06T13:29:31;4.97;;;3.10;;
41739;SDS011;27422;52.444;13.300;2022-07-06T13:31:57;5.28;;;3.35;;
41739;SDS011;27422;52.444;13.300;2022-07-06T13:34:22;6.07;;;3.55;;
41739;SDS011;27422;52.444;13.300;2022-07-06T13:36:48;5.25;;;3.20;;
41739;SDS011;27422;52.444;13.300;2022-07-06T13:39:14;6.45;;;3.25;;
41739;SDS011;27422;52.444;13.300;2022-07-06T13:41:39;5.10;;;2.83;;
41739;SDS011;27422;52.444;13.300;2022-07-06T13:44:05;5.75;;;3.15;;
41739;SDS011;27422;52.444;13.300;2022-07-06T13:46:32;4.70;;;2.72;;
41739;SDS011;27422;52.444;13.300;2022-07-06T13:48:57;5.07;;;2.60;;
41739;SDS011;27422;52.444;13.300;2022-07-06T13:51:24;5.18;;;2.60;;
41739;SDS011;27422;52.444;13.300;2022-07-06T13:53:50;5.97;;;3.60;;
41739;SDS011;27422;52.444;13.300;2022-07-06T13:56:15;5.40;;;3.28;;
41739;SDS011;27422;52.444;13.300;2022-07-06T13:58:41;5.10;;;2.70;;
41739;SDS011;27422;52.444;13.300;2022-07-06T14:01:10;4.15;;;2.17;;
41739;SDS011;27422;52.444;13.300;2022-07-06T14:03:35;4.88;;;2.70;;
41739;SDS011;27422;52.444;13.300;2022-07-06T14:06:02;4.30;;;2.33;;
41739;SDS011;27422;52.444;13.300;2022-07-06T14:08:32;3.75;;;2.15;;
41739;SDS011;27422;52.444;13.300;2022-07-06T14:11:00;2.42;;;1.05;;
41739;SDS011;27422;52.444;13.300;2022-07-06T14:13:26;2.53;;;0.98;;
41739;SDS011;27422;52.444;13.300;2022-07-06T14:15:51;1.58;;;0.55;;
41739;SDS011;27422;52.444;13.300;2022-07-06T14:18:17;2.38;;;0.60;;
41739;SDS011;27422;52.444;13.300;2022-07-06T14:20:43;1.85;;;0.70;;
41739;SDS011;27422;52.444;13.300;2022-07-06T14:23:10;2.70;;;0.75;;
41739;SDS011;27422;52.444;13.300;2022-07-06T14:25:36;1.15;;;0.50;;
41739;SDS011;27422;52.444;13.300;2022-07-06T14:28:02;1.65;;;0.30;;
41739;SDS011;27422;52.444;13.300;2022-07-06T14:30:28;0.43;;;0.20;;
41739;SDS011;27422;52.444;13.300;2022-07-06T14:32:53;0.95;;;0.30;;
41739;SDS011;27422;52.444;13.300;2022-07-06T14:35:18;1.42;;;0.40;;
41739;SDS011;27422;52.444;13.300;2022-07-06T14:37:44;1.20;;;0.30;;
41739;SDS011;27422;52.444;13.300;2022-07-06T14:40:09;1.45;;;0.30;;
41739;SDS011;27422;52.444;13.300;2022-07-06T14:42:35;1.00;;;0.30;;
41739;SDS011;27422;52.444;13.300;2022-07-06T14:45:00;1.40;;;0.68;;
41739;SDS011;27422;52.444;13.300;2022-07-06T14:47:26;2.50;;;0.60;;
41739;SDS011;27422;52.444;13.300;2022-07-06T14:49:51;3.80;;;0.60;;
41739;SDS011;27422;52.444;13.300;2022-07-06T14:52:18;2.47;;;0.88;;
41739;SDS011;27422;52.444;13.300;2022-07-06T14:54:43;2.72;;;0.82;;
41739;SDS011;27422;52.444;13.300;2022-07-06T14:57:09;1.70;;;0.80;;
41739;SDS011;27422;52.444;13.300;2022-07-06T14:59:34;2.17;;;0.88;;
41739;SDS011;27422;52.444;13.300;2022-07-06T15:02:00;2.33;;;1.00;;
41739;SDS011;27422;52.444;13.300;2022-07-06T15:04:25;4.15;;;1.00;;
41739;SDS011;27422;52.444;13.300;2022-07-06T15:06:51;3.15;;;0.90;;
41739;SDS011;27422;52.444;13.300;2022-07-06T15:09:16;2.88;;;1.17;;